sensor_id;sensor_type;location;lat;lon;timestamp;P1;durP1;ratioP1;P2;durP2;ratioP2
61569;SDS011;47462;59.172;17.196;2023-12-29T00:01:59;123.60;;;5.03;;
61569;SDS011;47462;59.172;17.196;2023-12-29T00:04:26;3.65;;;0.90;;
61569;SDS011;47462;59.172;17.196;2023-12-29T00:06:52;1.38;;;0.70;;
61569;SDS011;47462;59.172;17.196;2023-12-29T00:09:17;4.53;;;0.97;;
61569;SDS011;47462;59.172;17.196;2023-12-29T00:11:49;13.60;;;0.80;;
61569;SDS011;47462;59.172;17.196;2023-12-29T00:14:17;1.80;;;0.40;;
61569;SDS011;47462;59.172;17.196;2023-12-29T00:16:43;2.03;;;0.55;;
61569;SDS011;47462;59.172;17.196;2023-12-29T00:19:10;2.05;;;0.63;;
61569;SDS011;47462;59.172;17.196;2023-12-29T00:21:37;1.60;;;0.60;;
61569;SDS011;47462;59.172;17.196;2023-12-29T00:24:03;0.55;;;0.40;;
61569;SDS011;47462;59.172;17.196;2023-12-29T00:26:30;0.85;;;0.43;;
61569;SDS011;47462;59.172;17.196;2023-12-29T00:28:59;0.88;;;0.45;;
61569;SDS011;47462;59.172;17.196;2023-12-29T00:31:25;4.75;;;0.85;;
61569;SDS011;47462;59.172;17.196;2023-12-29T00:33:50;0.60;;;0.30;;
61569;SDS011;47462;59.172;17.196;2023-12-29T00:36:18;1.35;;;0.65;;
61569;SDS011;47462;59.172;17.196;2023-12-29T00:38:45;2.25;;;0.60;;
61569;SDS011;47462;59.172;17.196;2023-12-29T00:41:10;4.82;;;1.48;;
61569;SDS011;47462;59.172;17.196;2023-12-29T00:43:41;1.20;;;0.70;;
61569;SDS011;47462;59.172;17.196;2023-12-29T00:46:07;4.20;;;0.52;;
61569;SDS011;47462;59.172;17.196;2023-12-29T00:48:33;0.95;;;0.70;;
61569;SDS011;47462;59.172;17.196;2023-12-29T00:53:28;1.58;;;0.68;;
61569;SDS011;47462;59.172;17.196;2023-12-29T00:55:57;1.38;;;0.82;;
61569;SDS011;47462;59.172;17.196;2023-12-29T00:58:22;3.28;;;1.88;;
61569;SDS011;47462;59.172;17.196;2023-12-29T01:00:48;0.80;;;0.80;;
61569;SDS011;47462;59.172;17.196;2023-12-29T01:03:15;1.40;;;1.00;;
61569;SDS011;47462;59.172;17.196;2023-12-29T01:05:46;2.53;;;1.10;;
61569;SDS011;47462;59.172;17.196;2023-12-29T01:08:14;2.42;;;1.13;;
61569;SDS011;47462;59.172;17.196;2023-12-29T01:10:39;2.43;;;1.40;;
61569;SDS011;47462;59.172;17.196;2023-12-29T01:13:05;3.22;;;1.00;;
61569;SDS011;47462;59.172;17.196;2023-12-29T01:15:31;3.10;;;1.43;;
61569;SDS011;47462;59.172;17.196;2023-12-29T01:17:57;2.67;;;1.40;;
61569;SDS011;47462;59.172;17.196;2023-12-29T01:20:22;3.53;;;1.20;;
61569;SDS011;47462;59.172;17.196;2023-12-29T01:22:48;2.28;;;1.23;;
61569;SDS011;47462;59.172;17.196;2023-12-29T01:25:14;6.17;;;1.20;;
61569;SDS011;47462;59.172;17.196;2023-12-29T01:27:39;4.53;;;1.15;;
61569;SDS011;47462;59.172;17.196;2023-12-29T01:30:05;3.23;;;1.00;;
61569;SDS011;47462;59.172;17.196;2023-12-29T01:32:33;4.95;;;1.00;;
61569;SDS011;47462;59.172;17.196;2023-12-29T01:34:58;3.22;;;0.90;;
61569;SDS011;47462;59.172;17.196;2023-12-29T01:37:25;2.72;;;0.90;;
61569;SDS011;47462;59.172;17.196;2023-12-29T01:39:51;2.92;;;0.82;;
61569;SDS011;47462;59.172;17.196;2023-12-29T01:42:16;2.63;;;1.15;;
61569;SDS011;47462;59.172;17.196;2023-12-29T01:44:42;1.70;;;1.27;;
61569;SDS011;47462;59.172;17.196;2023-12-29T01:47:14;7.82;;;2.00;;
61569;SDS011;47462;59.172;17.196;2023-12-29T01:49:45;2.45;;;1.38;;
61569;SDS011;47462;59.172;17.196;2023-12-29T01:52:12;14.55;;;1.58;;
61569;SDS011;47462;59.172;17.196;2023-12-29T01:54:40;4.03;;;1.60;;
61569;SDS011;47462;59.172;17.196;2023-12-29T01:57:08;15.20;;;1.90;;
61569;SDS011;47462;59.172;17.196;2023-12-29T01:59:36;5.88;;;1.90;;
61569;SDS011;47462;59.172;17.196;2023-12-29T02:02:03;4.85;;;1.67;;
61569;SDS011;47462;59.172;17.196;2023-12-29T02:04:29;5.97;;;1.75;;
61569;SDS011;47462;59.172;17.196;2023-12-29T02:06:56;3.33;;;1.20;;
61569;SDS011;47462;59.172;17.196;2023-12-29T02:09:22;5.90;;;2.00;;
61569;SDS011;47462;59.172;17.196;2023-12-29T02:11:48;14.60;;;1.83;;
61569;SDS011;47462;59.172;17.196;2023-12-29T02:14:17;8.80;;;2.30;;
61569;SDS011;47462;59.172;17.196;2023-12-29T02:19:37;102.05;;;5.28;;
61569;SDS011;47462;59.172;17.196;2023-12-29T02:22:09;3.00;;;1.13;;
61569;SDS011;47462;59.172;17.196;2023-12-29T02:24:35;2.85;;;1.25;;
61569;SDS011;47462;59.172;17.196;2023-12-29T02:30:00;3.13;;;1.00;;
61569;SDS011;47462;59.172;17.196;2023-12-29T02:32:43;1.65;;;1.00;;
61569;SDS011;47462;59.172;17.196;2023-12-29T02:35:12;2.47;;;1.30;;
61569;SDS011;47462;59.172;17.196;2023-12-29T02:37:39;1.52;;;0.95;;
61569;SDS011;47462;59.172;17.196;2023-12-29T02:40:07;2.78;;;1.00;;
61569;SDS011;47462;59.172;17.196;2023-12-29T02:42:33;4.80;;;1.30;;
61569;SDS011;47462;59.172;17.196;2023-12-29T02:44:58;2.33;;;1.00;;
61569;SDS011;47462;59.172;17.196;2023-12-29T02:47:23;3.30;;;1.77;;
61569;SDS011;47462;59.172;17.196;2023-12-29T02:49:49;2.53;;;0.93;;
61569;SDS011;47462;59.172;17.196;2023-12-29T02:52:15;3.28;;;1.15;;
61569;SDS011;47462;59.172;17.196;2023-12-29T02:54:40;2.13;;;1.20;;
61569;SDS011;47462;59.172;17.196;2023-12-29T02:57:06;4.50;;;1.00;;
61569;SDS011;47462;59.172;17.196;2023-12-29T02:59:31;4.97;;;1.40;;
61569;SDS011;47462;59.172;17.196;2023-12-29T03:01:56;2.47;;;1.00;;
61569;SDS011;47462;59.172;17.196;2023-12-29T03:04:22;8.67;;;2.17;;
61569;SDS011;47462;59.172;17.196;2023-12-29T03:06:47;3.43;;;0.90;;
61569;SDS011;47462;59.172;17.196;2023-12-29T03:09:12;3.47;;;1.52;;
61569;SDS011;47462;59.172;17.196;2023-12-29T03:11:38;1.80;;;1.10;;
61569;SDS011;47462;59.172;17.196;2023-12-29T03:14:03;2.53;;;1.10;;
61569;SDS011;47462;59.172;17.196;2023-12-29T03:16:28;2.70;;;1.30;;
61569;SDS011;47462;59.172;17.196;2023-12-29T03:18:54;3.23;;;1.20;;
61569;SDS011;47462;59.172;17.196;2023-12-29T03:21:19;1.30;;;1.00;;
61569;SDS011;47462;59.172;17.196;2023-12-29T03:26:11;3.47;;;0.95;;
61569;SDS011;47462;59.172;17.196;2023-12-29T03:28:36;8.90;;;1.20;;
61569;SDS011;47462;59.172;17.196;2023-12-29T03:31:03;3.65;;;1.08;;
61569;SDS011;47462;59.172;17.196;2023-12-29T03:33:28;2.75;;;0.93;;
61569;SDS011;47462;59.172;17.196;2023-12-29T03:35:54;2.43;;;1.20;;
61569;SDS011;47462;59.172;17.196;2023-12-29T03:38:19;3.07;;;1.03;;
61569;SDS011;47462;59.172;17.196;2023-12-29T03:40:44;31.03;;;2.50;;
61569;SDS011;47462;59.172;17.196;2023-12-29T03:43:10;3.20;;;1.10;;
61569;SDS011;47462;59.172;17.196;2023-12-29T03:45:35;7.13;;;1.27;;
61569;SDS011;47462;59.172;17.196;2023-12-29T03:48:00;4.47;;;1.10;;
61569;SDS011;47462;59.172;17.196;2023-12-29T03:50:27;14.13;;;1.25;;
61569;SDS011;47462;59.172;17.196;2023-12-29T03:52:52;31.10;;;1.83;;
61569;SDS011;47462;59.172;17.196;2023-12-29T03:55:17;6.90;;;0.83;;
61569;SDS011;47462;59.172;17.196;2023-12-29T03:57:43;3.57;;;0.83;;
61569;SDS011;47462;59.172;17.196;2023-12-29T04:00:11;4.17;;;0.80;;
61569;SDS011;47462;59.172;17.196;2023-12-29T04:02:39;9.13;;;1.02;;
61569;SDS011;47462;59.172;17.196;2023-12-29T04:05:10;11.95;;;1.00;;
61569;SDS011;47462;59.172;17.196;2023-12-29T04:07:38;3.88;;;0.80;;
61569;SDS011;47462;59.172;17.196;2023-12-29T04:10:04;4.03;;;0.63;;
61569;SDS011;47462;59.172;17.196;2023-12-29T04:12:30;4.68;;;0.80;;
61569;SDS011;47462;59.172;17.196;2023-12-29T04:14:56;5.00;;;0.83;;
61569;SDS011;47462;59.172;17.196;2023-12-29T04:17:21;5.73;;;0.70;;
61569;SDS011;47462;59.172;17.196;2023-12-29T04:19:46;0.97;;;0.50;;
61569;SDS011;47462;59.172;17.196;2023-12-29T04:22:12;5.83;;;0.60;;
61569;SDS011;47462;59.172;17.196;2023-12-29T04:24:37;1.50;;;0.30;;
61569;SDS011;47462;59.172;17.196;2023-12-29T04:27:03;0.80;;;0.40;;
61569;SDS011;47462;59.172;17.196;2023-12-29T04:29:28;0.50;;;0.30;;
61569;SDS011;47462;59.172;17.196;2023-12-29T04:31:54;0.83;;;0.33;;
61569;SDS011;47462;59.172;17.196;2023-12-29T04:34:20;2.33;;;0.40;;
61569;SDS011;47462;59.172;17.196;2023-12-29T04:36:45;1.38;;;0.40;;
61569;SDS011;47462;59.172;17.196;2023-12-29T04:39:10;4.17;;;0.37;;
61569;SDS011;47462;59.172;17.196;2023-12-29T04:41:36;1.07;;;0.33;;
61569;SDS011;47462;59.172;17.196;2023-12-29T04:44:01;4.18;;;0.40;;
61569;SDS011;47462;59.172;17.196;2023-12-29T04:46:27;2.00;;;0.23;;
61569;SDS011;47462;59.172;17.196;2023-12-29T04:48:52;0.60;;;0.50;;
61569;SDS011;47462;59.172;17.196;2023-12-29T04:51:18;0.30;;;0.30;;
61569;SDS011;47462;59.172;17.196;2023-12-29T04:53:43;1.63;;;0.30;;
61569;SDS011;47462;59.172;17.196;2023-12-29T04:56:09;1.40;;;0.30;;
61569;SDS011;47462;59.172;17.196;2023-12-29T04:58:34;0.70;;;0.30;;
61569;SDS011;47462;59.172;17.196;2023-12-29T05:01:00;0.50;;;0.27;;
61569;SDS011;47462;59.172;17.196;2023-12-29T05:03:25;0.20;;;0.20;;
61569;SDS011;47462;59.172;17.196;2023-12-29T05:05:50;0.83;;;0.30;;
61569;SDS011;47462;59.172;17.196;2023-12-29T05:08:16;4.93;;;0.30;;
61569;SDS011;47462;59.172;17.196;2023-12-29T05:10:41;1.05;;;0.20;;
61569;SDS011;47462;59.172;17.196;2023-12-29T05:13:06;0.83;;;0.30;;
61569;SDS011;47462;59.172;17.196;2023-12-29T05:15:32;2.40;;;0.40;;
61569;SDS011;47462;59.172;17.196;2023-12-29T05:17:57;0.70;;;0.50;;
61569;SDS011;47462;59.172;17.196;2023-12-29T05:20:22;5.50;;;0.70;;
61569;SDS011;47462;59.172;17.196;2023-12-29T05:22:48;0.30;;;0.30;;
61569;SDS011;47462;59.172;17.196;2023-12-29T05:25:13;2.20;;;0.40;;
61569;SDS011;47462;59.172;17.196;2023-12-29T05:27:38;1.03;;;0.37;;
61569;SDS011;47462;59.172;17.196;2023-12-29T05:30:04;2.13;;;0.40;;
61569;SDS011;47462;59.172;17.196;2023-12-29T05:32:30;0.57;;;0.10;;
61569;SDS011;47462;59.172;17.196;2023-12-29T05:34:55;2.03;;;0.20;;
61569;SDS011;47462;59.172;17.196;2023-12-29T05:37:20;1.83;;;0.23;;
61569;SDS011;47462;59.172;17.196;2023-12-29T05:39:46;0.50;;;0.27;;
61569;SDS011;47462;59.172;17.196;2023-12-29T05:42:11;2.37;;;0.30;;
61569;SDS011;47462;59.172;17.196;2023-12-29T05:44:36;0.50;;;0.23;;
61569;SDS011;47462;59.172;17.196;2023-12-29T05:47:02;0.50;;;0.25;;
61569;SDS011;47462;59.172;17.196;2023-12-29T05:49:28;2.15;;;0.30;;
61569;SDS011;47462;59.172;17.196;2023-12-29T05:51:53;3.37;;;0.30;;
61569;SDS011;47462;59.172;17.196;2023-12-29T05:54:19;3.40;;;0.43;;
61569;SDS011;47462;59.172;17.196;2023-12-29T05:56:44;7.30;;;1.07;;
61569;SDS011;47462;59.172;17.196;2023-12-29T05:59:09;29.10;;;3.67;;
61569;SDS011;47462;59.172;17.196;2023-12-29T06:01:35;4.17;;;3.20;;
61569;SDS011;47462;59.172;17.196;2023-12-29T06:04:00;5.93;;;3.60;;
61569;SDS011;47462;59.172;17.196;2023-12-29T06:06:25;7.33;;;3.87;;
61569;SDS011;47462;59.172;17.196;2023-12-29T06:08:50;6.37;;;4.17;;
61569;SDS011;47462;59.172;17.196;2023-12-29T06:11:16;15.57;;;5.13;;
61569;SDS011;47462;59.172;17.196;2023-12-29T06:13:43;5.28;;;3.20;;
61569;SDS011;47462;59.172;17.196;2023-12-29T06:16:08;18.90;;;1.70;;
61569;SDS011;47462;59.172;17.196;2023-12-29T06:18:34;65.20;;;2.33;;
61569;SDS011;47462;59.172;17.196;2023-12-29T06:21:01;13.47;;;0.73;;
61569;SDS011;47462;59.172;17.196;2023-12-29T06:23:27;3.05;;;0.50;;
61569;SDS011;47462;59.172;17.196;2023-12-29T06:25:52;36.50;;;1.43;;
61569;SDS011;47462;59.172;17.196;2023-12-29T06:28:21;140.88;;;4.97;;
61569;SDS011;47462;59.172;17.196;2023-12-29T06:30:46;71.13;;;2.53;;
61569;SDS011;47462;59.172;17.196;2023-12-29T06:33:12;11.23;;;0.93;;
61569;SDS011;47462;59.172;17.196;2023-12-29T06:35:37;93.03;;;4.43;;
61569;SDS011;47462;59.172;17.196;2023-12-29T06:38:04;146.10;;;4.80;;
61569;SDS011;47462;59.172;17.196;2023-12-29T06:40:29;155.27;;;6.13;;
61569;SDS011;47462;59.172;17.196;2023-12-29T06:42:54;59.97;;;2.30;;
61569;SDS011;47462;59.172;17.196;2023-12-29T06:45:20;100.60;;;2.93;;
61569;SDS011;47462;59.172;17.196;2023-12-29T06:47:45;36.03;;;1.53;;
61569;SDS011;47462;59.172;17.196;2023-12-29T06:50:10;59.00;;;2.73;;
61569;SDS011;47462;59.172;17.196;2023-12-29T06:52:37;122.28;;;4.85;;
61569;SDS011;47462;59.172;17.196;2023-12-29T06:55:03;19.73;;;1.00;;
61569;SDS011;47462;59.172;17.196;2023-12-29T06:57:29;74.68;;;2.95;;
61569;SDS011;47462;59.172;17.196;2023-12-29T06:59:54;49.43;;;2.47;;
61569;SDS011;47462;59.172;17.196;2023-12-29T07:02:19;55.00;;;2.47;;
61569;SDS011;47462;59.172;17.196;2023-12-29T07:04:45;2.33;;;0.77;;
61569;SDS011;47462;59.172;17.196;2023-12-29T07:07:10;17.95;;;2.05;;
61569;SDS011;47462;59.172;17.196;2023-12-29T07:09:39;102.93;;;8.00;;
61569;SDS011;47462;59.172;17.196;2023-12-29T07:12:05;93.43;;;14.07;;
61569;SDS011;47462;59.172;17.196;2023-12-29T07:14:31;130.18;;;12.88;;
61569;SDS011;47462;59.172;17.196;2023-12-29T07:16:56;59.27;;;6.23;;
61569;SDS011;47462;59.172;17.196;2023-12-29T07:19:23;23.40;;;2.70;;
61569;SDS011;47462;59.172;17.196;2023-12-29T07:21:48;12.83;;;2.00;;
61569;SDS011;47462;59.172;17.196;2023-12-29T07:24:13;8.43;;;1.40;;
61569;SDS011;47462;59.172;17.196;2023-12-29T07:26:39;22.60;;;1.77;;
61569;SDS011;47462;59.172;17.196;2023-12-29T07:29:04;9.73;;;1.13;;
61569;SDS011;47462;59.172;17.196;2023-12-29T07:31:30;10.63;;;1.40;;
61569;SDS011;47462;59.172;17.196;2023-12-29T07:33:56;12.57;;;1.37;;
61569;SDS011;47462;59.172;17.196;2023-12-29T07:36:21;108.17;;;4.80;;
61569;SDS011;47462;59.172;17.196;2023-12-29T07:38:46;7.80;;;1.03;;
61569;SDS011;47462;59.172;17.196;2023-12-29T07:41:12;86.27;;;3.50;;
61569;SDS011;47462;59.172;17.196;2023-12-29T07:43:37;32.80;;;1.95;;
61569;SDS011;47462;59.172;17.196;2023-12-29T07:46:03;35.00;;;1.77;;
61569;SDS011;47462;59.172;17.196;2023-12-29T07:48:28;8.63;;;0.80;;
61569;SDS011;47462;59.172;17.196;2023-12-29T07:50:53;17.50;;;1.40;;
61569;SDS011;47462;59.172;17.196;2023-12-29T07:53:21;27.70;;;1.63;;
61569;SDS011;47462;59.172;17.196;2023-12-29T07:55:47;19.87;;;1.60;;
61569;SDS011;47462;59.172;17.196;2023-12-29T07:58:15;11.02;;;1.35;;
61569;SDS011;47462;59.172;17.196;2023-12-29T08:00:40;13.90;;;1.10;;
61569;SDS011;47462;59.172;17.196;2023-12-29T08:03:06;55.63;;;2.90;;
61569;SDS011;47462;59.172;17.196;2023-12-29T08:07:57;34.28;;;2.08;;
61569;SDS011;47462;59.172;17.196;2023-12-29T08:10:23;74.40;;;15.27;;
61569;SDS011;47462;59.172;17.196;2023-12-29T08:12:48;30.07;;;10.10;;
61569;SDS011;47462;59.172;17.196;2023-12-29T08:15:13;116.87;;;19.63;;
61569;SDS011;47462;59.172;17.196;2023-12-29T08:17:39;83.47;;;13.40;;
61569;SDS011;47462;59.172;17.196;2023-12-29T08:20:05;28.10;;;8.53;;
61569;SDS011;47462;59.172;17.196;2023-12-29T08:22:31;23.63;;;6.07;;
61569;SDS011;47462;59.172;17.196;2023-12-29T08:27:23;40.63;;;2.85;;
61569;SDS011;47462;59.172;17.196;2023-12-29T08:29:49;75.68;;;14.55;;
61569;SDS011;47462;59.172;17.196;2023-12-29T08:32:15;120.77;;;27.50;;
61569;SDS011;47462;59.172;17.196;2023-12-29T08:34:40;76.97;;;22.30;;
61569;SDS011;47462;59.172;17.196;2023-12-29T08:37:05;39.93;;;13.27;;
61569;SDS011;47462;59.172;17.196;2023-12-29T08:39:31;34.40;;;9.87;;
61569;SDS011;47462;59.172;17.196;2023-12-29T08:41:56;55.53;;;17.90;;
61569;SDS011;47462;59.172;17.196;2023-12-29T08:44:21;58.78;;;22.40;;
61569;SDS011;47462;59.172;17.196;2023-12-29T08:46:47;93.65;;;24.83;;
61569;SDS011;47462;59.172;17.196;2023-12-29T08:49:12;40.42;;;12.77;;
61569;SDS011;47462;59.172;17.196;2023-12-29T08:51:38;78.50;;;10.67;;
61569;SDS011;47462;59.172;17.196;2023-12-29T08:54:03;80.03;;;14.07;;
61569;SDS011;47462;59.172;17.196;2023-12-29T08:56:30;31.25;;;11.10;;
61569;SDS011;47462;59.172;17.196;2023-12-29T08:58:55;26.90;;;9.90;;
61569;SDS011;47462;59.172;17.196;2023-12-29T09:01:20;55.63;;;13.70;;
61569;SDS011;47462;59.172;17.196;2023-12-29T09:03:46;56.67;;;8.07;;
61569;SDS011;47462;59.172;17.196;2023-12-29T09:06:11;37.70;;;6.32;;
61569;SDS011;47462;59.172;17.196;2023-12-29T09:08:37;22.20;;;8.90;;
61569;SDS011;47462;59.172;17.196;2023-12-29T09:11:03;63.65;;;14.93;;
61569;SDS011;47462;59.172;17.196;2023-12-29T09:13:29;113.40;;;11.43;;
61569;SDS011;47462;59.172;17.196;2023-12-29T09:15:55;23.23;;;3.58;;
61569;SDS011;47462;59.172;17.196;2023-12-29T09:18:21;9.48;;;3.28;;
61569;SDS011;47462;59.172;17.196;2023-12-29T09:20:46;17.02;;;2.88;;
61569;SDS011;47462;59.172;17.196;2023-12-29T09:23:12;26.58;;;2.85;;
61569;SDS011;47462;59.172;17.196;2023-12-29T09:25:38;57.80;;;2.97;;
61569;SDS011;47462;59.172;17.196;2023-12-29T09:28:03;11.27;;;1.37;;
61569;SDS011;47462;59.172;17.196;2023-12-29T09:30:28;91.73;;;4.23;;
61569;SDS011;47462;59.172;17.196;2023-12-29T09:32:54;20.77;;;2.10;;
61569;SDS011;47462;59.172;17.196;2023-12-29T09:35:19;63.10;;;5.27;;
61569;SDS011;47462;59.172;17.196;2023-12-29T09:37:47;117.38;;;4.82;;
61569;SDS011;47462;59.172;17.196;2023-12-29T09:40:13;15.75;;;2.13;;
61569;SDS011;47462;59.172;17.196;2023-12-29T09:42:38;101.83;;;5.43;;
61569;SDS011;47462;59.172;17.196;2023-12-29T09:45:05;92.22;;;3.83;;
61569;SDS011;47462;59.172;17.196;2023-12-29T09:47:34;107.15;;;5.90;;
61569;SDS011;47462;59.172;17.196;2023-12-29T09:50:03;101.25;;;7.30;;
61569;SDS011;47462;59.172;17.196;2023-12-29T09:52:30;42.40;;;4.32;;
61569;SDS011;47462;59.172;17.196;2023-12-29T09:57:22;120.90;;;6.85;;
61569;SDS011;47462;59.172;17.196;2023-12-29T09:59:49;91.53;;;6.47;;
61569;SDS011;47462;59.172;17.196;2023-12-29T10:02:20;28.30;;;5.68;;
61569;SDS011;47462;59.172;17.196;2023-12-29T10:04:48;53.25;;;3.35;;
61569;SDS011;47462;59.172;17.196;2023-12-29T10:07:23;12.05;;;3.10;;
61569;SDS011;47462;59.172;17.196;2023-12-29T10:09:52;133.13;;;8.60;;
61569;SDS011;47462;59.172;17.196;2023-12-29T10:12:21;16.63;;;2.63;;
61569;SDS011;47462;59.172;17.196;2023-12-29T10:14:49;29.65;;;2.15;;
61569;SDS011;47462;59.172;17.196;2023-12-29T10:23:18;43.35;;;6.07;;
61569;SDS011;47462;59.172;17.196;2023-12-29T10:25:54;63.60;;;6.28;;
61569;SDS011;47462;59.172;17.196;2023-12-29T10:28:19;53.95;;;8.57;;
61569;SDS011;47462;59.172;17.196;2023-12-29T10:30:47;53.28;;;7.82;;
61569;SDS011;47462;59.172;17.196;2023-12-29T10:33:18;12.82;;;2.75;;
61569;SDS011;47462;59.172;17.196;2023-12-29T10:35:59;152.23;;;16.13;;
61569;SDS011;47462;59.172;17.196;2023-12-29T10:38:32;101.20;;;10.07;;
61569;SDS011;47462;59.172;17.196;2023-12-29T10:41:11;41.65;;;9.43;;
61569;SDS011;47462;59.172;17.196;2023-12-29T10:43:38;75.13;;;10.32;;
61569;SDS011;47462;59.172;17.196;2023-12-29T10:46:07;40.00;;;9.57;;
61569;SDS011;47462;59.172;17.196;2023-12-29T10:48:34;19.45;;;7.38;;
61569;SDS011;47462;59.172;17.196;2023-12-29T10:51:00;37.55;;;3.85;;
61569;SDS011;47462;59.172;17.196;2023-12-29T10:53:38;46.67;;;5.63;;
61569;SDS011;47462;59.172;17.196;2023-12-29T10:56:04;68.97;;;7.03;;
61569;SDS011;47462;59.172;17.196;2023-12-29T10:58:35;61.90;;;4.65;;
61569;SDS011;47462;59.172;17.196;2023-12-29T11:01:02;46.50;;;4.05;;
61569;SDS011;47462;59.172;17.196;2023-12-29T11:03:39;9.35;;;4.03;;
61569;SDS011;47462;59.172;17.196;2023-12-29T11:06:05;96.25;;;4.82;;
61569;SDS011;47462;59.172;17.196;2023-12-29T11:08:30;25.88;;;3.60;;
61569;SDS011;47462;59.172;17.196;2023-12-29T11:11:01;20.73;;;3.05;;
61569;SDS011;47462;59.172;17.196;2023-12-29T11:13:28;43.33;;;2.47;;
61569;SDS011;47462;59.172;17.196;2023-12-29T11:15:54;20.73;;;1.58;;
61569;SDS011;47462;59.172;17.196;2023-12-29T11:20:46;94.80;;;3.58;;
61569;SDS011;47462;59.172;17.196;2023-12-29T11:23:12;13.35;;;3.10;;
61569;SDS011;47462;59.172;17.196;2023-12-29T11:25:38;30.98;;;2.25;;
61569;SDS011;47462;59.172;17.196;2023-12-29T11:30:31;19.17;;;2.40;;
61569;SDS011;47462;59.172;17.196;2023-12-29T11:32:57;29.70;;;3.70;;
61569;SDS011;47462;59.172;17.196;2023-12-29T11:35:28;25.35;;;3.83;;
61569;SDS011;47462;59.172;17.196;2023-12-29T11:43:57;37.28;;;3.35;;
61569;SDS011;47462;59.172;17.196;2023-12-29T11:49:09;10.60;;;2.10;;
61569;SDS011;47462;59.172;17.196;2023-12-29T11:51:41;15.23;;;2.30;;
61569;SDS011;47462;59.172;17.196;2023-12-29T11:54:08;14.27;;;2.88;;
61569;SDS011;47462;59.172;17.196;2023-12-29T11:56:38;15.10;;;2.97;;
61569;SDS011;47462;59.172;17.196;2023-12-29T11:59:18;18.55;;;2.20;;
61569;SDS011;47462;59.172;17.196;2023-12-29T12:01:51;18.20;;;2.22;;
61569;SDS011;47462;59.172;17.196;2023-12-29T12:04:37;15.00;;;1.98;;
61569;SDS011;47462;59.172;17.196;2023-12-29T12:07:13;27.50;;;2.13;;
61569;SDS011;47462;59.172;17.196;2023-12-29T12:09:48;19.48;;;3.28;;
61569;SDS011;47462;59.172;17.196;2023-12-29T12:12:15;17.92;;;2.42;;
61569;SDS011;47462;59.172;17.196;2023-12-29T12:17:54;12.68;;;2.55;;
61569;SDS011;47462;59.172;17.196;2023-12-29T12:20:21;45.88;;;21.17;;
61569;SDS011;47462;59.172;17.196;2023-12-29T12:22:50;36.20;;;18.38;;
61569;SDS011;47462;59.172;17.196;2023-12-29T12:25:25;21.30;;;8.05;;
61569;SDS011;47462;59.172;17.196;2023-12-29T12:27:53;20.67;;;5.20;;
61569;SDS011;47462;59.172;17.196;2023-12-29T12:30:19;15.05;;;4.28;;
61569;SDS011;47462;59.172;17.196;2023-12-29T12:32:44;10.82;;;2.35;;
61569;SDS011;47462;59.172;17.196;2023-12-29T12:35:13;12.20;;;2.97;;
61569;SDS011;47462;59.172;17.196;2023-12-29T12:37:41;20.15;;;3.28;;
61569;SDS011;47462;59.172;17.196;2023-12-29T12:40:06;14.83;;;2.07;;
61569;SDS011;47462;59.172;17.196;2023-12-29T12:42:33;17.38;;;2.58;;
61569;SDS011;47462;59.172;17.196;2023-12-29T12:45:06;19.13;;;2.40;;
61569;SDS011;47462;59.172;17.196;2023-12-29T12:47:44;29.08;;;2.50;;
61569;SDS011;47462;59.172;17.196;2023-12-29T12:50:11;41.28;;;3.03;;
61569;SDS011;47462;59.172;17.196;2023-12-29T12:52:37;39.92;;;3.30;;
61569;SDS011;47462;59.172;17.196;2023-12-29T12:55:04;9.90;;;1.98;;
61569;SDS011;47462;59.172;17.196;2023-12-29T12:57:30;11.45;;;2.55;;
61569;SDS011;47462;59.172;17.196;2023-12-29T12:59:57;20.92;;;2.03;;
61569;SDS011;47462;59.172;17.196;2023-12-29T13:02:25;21.58;;;2.15;;
61569;SDS011;47462;59.172;17.196;2023-12-29T13:07:18;15.95;;;2.38;;
61569;SDS011;47462;59.172;17.196;2023-12-29T13:09:47;6.40;;;2.15;;
61569;SDS011;47462;59.172;17.196;2023-12-29T13:12:15;12.75;;;4.07;;
61569;SDS011;47462;59.172;17.196;2023-12-29T13:14:41;28.13;;;5.15;;
61569;SDS011;47462;59.172;17.196;2023-12-29T13:17:11;18.45;;;4.32;;
61569;SDS011;47462;59.172;17.196;2023-12-29T13:19:39;18.38;;;2.75;;
61569;SDS011;47462;59.172;17.196;2023-12-29T13:22:06;11.13;;;2.20;;
61569;SDS011;47462;59.172;17.196;2023-12-29T13:24:33;17.33;;;2.17;;
61569;SDS011;47462;59.172;17.196;2023-12-29T13:27:04;25.02;;;3.95;;
61569;SDS011;47462;59.172;17.196;2023-12-29T13:29:30;10.05;;;2.33;;
61569;SDS011;47462;59.172;17.196;2023-12-29T13:32:00;11.35;;;2.28;;
61569;SDS011;47462;59.172;17.196;2023-12-29T13:43:12;38.58;;;4.70;;
61569;SDS011;47462;59.172;17.196;2023-12-29T13:45:41;82.75;;;8.85;;
61569;SDS011;47462;59.172;17.196;2023-12-29T13:50:34;77.00;;;10.30;;
61569;SDS011;47462;59.172;17.196;2023-12-29T13:52:59;36.40;;;7.30;;
61569;SDS011;47462;59.172;17.196;2023-12-29T13:55:25;18.80;;;6.78;;
61569;SDS011;47462;59.172;17.196;2023-12-29T13:57:51;52.97;;;5.22;;
61569;SDS011;47462;59.172;17.196;2023-12-29T14:00:17;85.53;;;5.72;;
61569;SDS011;47462;59.172;17.196;2023-12-29T14:07:55;129.32;;;5.85;;
61569;SDS011;47462;59.172;17.196;2023-12-29T14:10:31;60.95;;;3.35;;
61569;SDS011;47462;59.172;17.196;2023-12-29T14:13:07;36.83;;;2.67;;
61569;SDS011;47462;59.172;17.196;2023-12-29T14:15:36;91.63;;;4.07;;
61569;SDS011;47462;59.172;17.196;2023-12-29T14:20:37;144.57;;;5.43;;
61569;SDS011;47462;59.172;17.196;2023-12-29T14:23:06;79.70;;;4.68;;
61569;SDS011;47462;59.172;17.196;2023-12-29T14:25:35;64.07;;;3.03;;
61569;SDS011;47462;59.172;17.196;2023-12-29T14:28:02;99.70;;;4.15;;
61569;SDS011;47462;59.172;17.196;2023-12-29T14:30:38;60.22;;;3.28;;
61569;SDS011;47462;59.172;17.196;2023-12-29T14:33:04;142.30;;;4.57;;
61569;SDS011;47462;59.172;17.196;2023-12-29T14:35:29;44.40;;;3.30;;
61569;SDS011;47462;59.172;17.196;2023-12-29T14:37:54;86.67;;;3.67;;
61569;SDS011;47462;59.172;17.196;2023-12-29T14:40:20;185.93;;;6.37;;
61569;SDS011;47462;59.172;17.196;2023-12-29T14:42:45;65.60;;;3.90;;
61569;SDS011;47462;59.172;17.196;2023-12-29T14:45:11;176.30;;;6.82;;
61569;SDS011;47462;59.172;17.196;2023-12-29T14:47:36;57.43;;;2.90;;
61569;SDS011;47462;59.172;17.196;2023-12-29T14:50:02;15.68;;;1.70;;
61569;SDS011;47462;59.172;17.196;2023-12-29T14:52:27;131.93;;;3.80;;
61569;SDS011;47462;59.172;17.196;2023-12-29T14:54:53;90.17;;;4.20;;
61569;SDS011;47462;59.172;17.196;2023-12-29T14:57:18;98.03;;;4.43;;
61569;SDS011;47462;59.172;17.196;2023-12-29T14:59:43;35.03;;;2.53;;
61569;SDS011;47462;59.172;17.196;2023-12-29T15:02:09;194.67;;;7.50;;
61569;SDS011;47462;59.172;17.196;2023-12-29T15:04:34;159.87;;;7.37;;
61569;SDS011;47462;59.172;17.196;2023-12-29T15:07:00;110.88;;;5.70;;
61569;SDS011;47462;59.172;17.196;2023-12-29T15:09:26;179.45;;;7.10;;
61569;SDS011;47462;59.172;17.196;2023-12-29T15:11:51;149.27;;;6.73;;
61569;SDS011;47462;59.172;17.196;2023-12-29T15:14:18;57.03;;;3.70;;
61569;SDS011;47462;59.172;17.196;2023-12-29T15:16:45;77.78;;;4.63;;
61569;SDS011;47462;59.172;17.196;2023-12-29T15:19:11;112.15;;;8.63;;
61569;SDS011;47462;59.172;17.196;2023-12-29T15:21:39;166.88;;;9.00;;
61569;SDS011;47462;59.172;17.196;2023-12-29T15:24:05;123.45;;;11.55;;